Time;durP1;ratioP1;P1;durP2;ratioP2;P2;SDS_P1;SDS_P2;PMS_P1;PMS_P2;Temp;Humidity;BMP_temperature;BMP_pressure;BME280_temperature;BME280_humidity;BME280_pressure;Samples;Min_cycle;Max_cycle;Signal;HPM_P1;HPM_P2
2023/01/07 00:01:26;;;;;;;2.03;0.90;;;;;;;10.95;100.00;100254.38;12193034;19;20362;-79
2023/01/07 00:05:28;;;;;;;1.30;0.70;;;;;;;10.97;100.00;100254.13;12182323;19;20137;-80
2023/01/07 00:09:29;;;;;;;1.83;0.93;;;;;;;10.98;100.00;100253.06;12163151;19;20034;-80
2023/01/07 00:13:31;;;;;;;3.20;1.13;;;;;;;10.99;100.00;100249.22;12179105;19;21238;-80
2023/01/07 00:17:33;;;;;;;3.63;1.08;;;;;;;10.98;100.00;100242.88;12183582;19;20019;-79
2023/01/07 00:21:34;;;;;;;1.20;0.85;;;;;;;10.99;100.00;100243.72;12162285;19;20035;-80
2023/01/07 00:25:36;;;;;;;1.67;0.90;;;;;;;11.02;100.00;100243.22;12181701;19;20002;-80
2023/01/07 00:29:37;;;;;;;2.25;0.98;;;;;;;11.01;100.00;100236.03;12189652;19;20027;-80
2023/01/07 00:34:13;;;;;;;1.98;0.70;;;;;;;10.97;100.00;100241.19;12162953;19;19999;-80
2023/01/07 00:38:07;;;;;;;2.28;1.20;;;;;;;10.97;100.00;100243.09;12183563;19;20101;-80
2023/01/07 00:46:46;;;;;;;2.08;1.00;;;;;;;10.94;100.00;100236.16;12179316;19;20006;-79
2023/01/07 00:50:49;;;;;;;2.88;1.30;;;;;;;10.91;100.00;100234.69;12159692;19;20018;-80
2023/01/07 00:54:50;;;;;;;;;;;;;;;10.88;100.00;100228.84;12177846;19;20038;-80
2023/01/07 00:58:52;;;;;;;1.80;1.10;;;;;;;10.87;100.00;100238.19;12175347;19;19915;-80
2023/01/07 01:02:54;;;;;;;2.33;0.83;;;;;;;10.84;100.00;100228.50;12152167;19;20014;-81
2023/01/07 01:06:56;;;;;;;1.92;1.00;;;;;;;10.83;100.00;100226.81;12176910;19;20094;-79
2023/01/07 01:11:04;;;;;;;2.60;1.40;;;;;;;10.81;100.00;100226.22;12170797;19;20006;-80
2023/01/07 01:15:12;;;;;;;3.00;1.08;;;;;;;10.78;100.00;100220.34;12167574;19;20075;-80
2023/01/07 01:19:14;;;;;;;2.30;1.40;;;;;;;10.76;100.00;100206.81;12193753;19;20690;-80
2023/01/07 01:23:15;;;;;;;2.70;1.15;;;;;;;10.73;100.00;100212.78;12193819;19;20041;-80
2023/01/07 01:27:18;;;;;;;6.53;1.35;;;;;;;10.73;100.00;100204.53;12170002;19;20007;-79
2023/01/07 01:31:20;;;;;;;1.90;1.30;;;;;;;10.68;100.00;100199.75;12191119;19;20380;-80
2023/01/07 01:35:26;;;;;;;2.72;1.17;;;;;;;10.67;100.00;100205.50;12183492;19;20354;-80
2023/01/07 01:39:28;;;;;;;4.70;1.48;;;;;;;10.67;100.00;100208.25;12171463;19;19999;-80
2023/01/07 01:43:35;;;;;;;1.95;1.05;;;;;;;10.71;100.00;100192.94;12190482;19;20017;-80
2023/01/07 01:47:48;;;;;;;2.35;1.30;;;;;;;10.71;100.00;100195.69;12174227;19;20019;-79
2023/01/07 01:52:11;;;;;;;5.78;1.60;;;;;;;10.73;100.00;100188.81;12172075;19;20361;-79
2023/01/07 01:56:16;;;;;;;;;;;;;;;10.69;100.00;100179.38;12202251;19;20074;-80
2023/01/07 02:00:18;;;;;;;2.50;1.17;;;;;;;10.73;100.00;100185.22;12179096;19;19918;-80
2023/01/07 02:04:26;;;;;;;3.28;1.50;;;;;;;10.72;100.00;100189.91;12198415;19;20027;-79
2023/01/07 02:08:28;;;;;;;2.15;1.38;;;;;;;10.71;100.00;100176.38;12203039;19;20002;-81
2023/01/07 02:12:57;;;;;;;3.15;1.60;;;;;;;10.72;100.00;100170.63;12180704;19;20667;-79
2023/01/07 02:17:33;;;;;;;3.65;1.70;;;;;;;10.69;100.00;100173.03;12198815;19;20007;-80
2023/01/07 02:22:00;;;;;;;2.42;1.20;;;;;;;10.69;100.00;100157.31;12181120;19;20033;-80
2023/01/07 02:26:42;;;;;;;2.72;1.50;;;;;;;10.66;100.00;100155.06;12201199;19;20070;-79
2023/01/07 02:30:59;;;;;;;2.78;1.60;;;;;;;10.70;100.00;100152.66;12201222;19;20685;-79
2023/01/07 02:35:17;;;;;;;3.05;1.58;;;;;;;10.66;100.00;100148.72;12223590;19;20017;-80
2023/01/07 02:39:46;;;;;;;4.68;1.80;;;;;;;10.69;100.00;100143.53;12183431;19;20011;-80
2023/01/07 02:44:35;;;;;;;3.60;1.70;;;;;;;10.67;100.00;100139.34;12200152;19;20006;-81
2023/01/07 02:48:38;;;;;;;6.00;1.77;;;;;;;10.66;100.00;100135.75;12223923;19;20040;-81
2023/01/07 02:52:39;;;;;;;4.82;1.73;;;;;;;10.67;100.00;100126.41;12221047;19;20007;-80
2023/01/07 02:56:50;;;;;;;3.53;1.73;;;;;;;10.70;100.00;100125.09;12201755;19;20013;-81
2023/01/07 03:01:00;;;;;;;3.80;1.73;;;;;;;10.72;100.00;100114.66;12173548;19;20011;-80
2023/01/07 03:05:32;;;;;;;2.83;1.60;;;;;;;10.73;100.00;100116.31;12199070;19;20030;-80
2023/01/07 03:09:55;;;;;;;4.40;2.07;;;;;;;10.69;100.00;100112.41;12181470;19;20523;-80
2023/01/07 03:14:19;;;;;;;5.38;2.00;;;;;;;10.71;100.00;100113.00;12194436;19;20019;-80
2023/01/07 03:18:28;;;;;;;4.78;1.55;;;;;;;10.73;100.00;100108.06;12172672;19;20006;-80
2023/01/07 03:22:35;;;;;;;5.80;1.58;;;;;;;10.71;100.00;100105.56;12198158;19;20377;-79
2023/01/07 03:26:42;;;;;;;2.53;1.58;;;;;;;10.69;100.00;100099.44;12194614;19;20010;-80
2023/01/07 03:30:46;;;;;;;4.95;1.90;;;;;;;10.72;100.00;100096.19;12175480;19;20058;-79
2023/01/07 03:34:48;;;;;;;3.42;1.88;;;;;;;10.74;100.00;100098.72;12194926;19;20006;-80
2023/01/07 03:38:52;;;;;;;2.92;1.50;;;;;;;10.71;100.00;100097.28;12176447;19;20011;-80
2023/01/07 03:42:54;;;;;;;2.70;1.30;;;;;;;10.72;100.00;100092.63;12194898;19;20412;-80
2023/01/07 03:46:58;;;;;;;5.05;1.70;;;;;;;10.75;100.00;100092.13;12191774;19;20050;-80
2023/01/07 03:50:59;;;;;;;5.05;1.65;;;;;;;10.77;100.00;100092.72;12164495;19;20082;-79
2023/01/07 03:55:03;;;;;;;3.58;1.75;;;;;;;10.78;100.00;100085.28;12195533;19;20048;-80
2023/01/07 03:59:06;;;;;;;1.85;1.20;;;;;;;10.80;100.00;100083.97;12194976;19;20007;-80
2023/01/07 04:03:07;;;;;;;2.65;1.40;;;;;;;10.81;100.00;100074.59;12172311;19;20516;-81
2023/01/07 04:07:14;;;;;;;4.03;1.55;;;;;;;10.83;100.00;100069.69;12194236;19;20003;-80
2023/01/07 04:11:16;;;;;;;2.65;1.25;;;;;;;10.85;100.00;100063.91;12196594;19;20007;-80
2023/01/07 04:15:18;;;;;;;2.20;1.40;;;;;;;10.85;100.00;100073.03;12172967;19;20027;-80
2023/01/07 04:19:20;;;;;;;2.13;1.00;;;;;;;10.83;100.00;100058.66;12197488;19;20493;-80
2023/01/07 04:23:22;;;;;;;1.65;1.17;;;;;;;10.82;100.00;100056.97;12192667;19;20099;-80
2023/01/07 04:27:26;;;;;;;3.20;1.30;;;;;;;10.82;100.00;100056.97;12174773;19;20531;-79
2023/01/07 04:31:28;;;;;;;2.97;1.33;;;;;;;10.86;100.00;100052.66;12173693;19;20007;-80
2023/01/07 04:35:30;;;;;;;4.60;1.60;;;;;;;10.86;100.00;100040.81;12180318;19;20009;-81
2023/01/07 04:39:31;;;;;;;1.83;0.90;;;;;;;10.89;100.00;100043.06;12155904;19;20021;-81
2023/01/07 04:43:35;;;;;;;2.22;1.02;;;;;;;10.88;100.00;100036.69;12174436;19;20349;-80
2023/01/07 04:47:39;;;;;;;2.13;1.10;;;;;;;10.90;100.00;100030.94;12174707;19;21958;-79
2023/01/07 04:51:41;;;;;;;2.03;1.00;;;;;;;10.91;100.00;100024.34;12150868;19;20014;-79
2023/01/07 04:55:43;;;;;;;1.10;0.63;;;;;;;10.90;100.00;100026.25;12172384;19;20002;-81
2023/01/07 04:59:47;;;;;;;3.28;1.20;;;;;;;10.90;100.00;100025.44;12164752;19;20688;-79
2023/01/07 05:03:49;;;;;;;4.90;1.42;;;;;;;10.89;100.00;100019.09;12169507;19;20014;-80
2023/01/07 05:07:50;;;;;;;2.75;1.30;;;;;;;10.91;100.00;100011.38;12171372;19;21520;-80
2023/01/07 05:11:53;;;;;;;3.00;1.30;;;;;;;10.94;100.00;100005.38;12148374;19;21386;-80
2023/01/07 05:15:56;;;;;;;1.98;1.33;;;;;;;10.93;100.00;99998.19;12183551;19;20074;-80
2023/01/07 05:19:58;;;;;;;1.80;0.93;;;;;;;10.90;100.00;100001.44;12179768;19;20007;-80
2023/01/07 05:24:00;;;;;;;4.13;1.20;;;;;;;10.88;100.00;99989.00;12161451;19;20599;-80
2023/01/07 05:28:01;;;;;;;3.17;1.45;;;;;;;10.88;100.00;99987.06;12181679;19;20014;-80
2023/01/07 05:32:05;;;;;;;2.40;1.17;;;;;;;10.89;100.00;99972.22;12179955;19;20023;-80
2023/01/07 05:36:08;;;;;;;1.98;1.15;;;;;;;10.89;100.00;99974.16;12158417;19;20015;-80
2023/01/07 05:40:11;;;;;;;1.67;1.00;;;;;;;10.89;100.00;99968.63;12184356;19;20602;-80
2023/01/07 05:44:13;;;;;;;2.28;1.30;;;;;;;10.91;100.00;99978.28;12183197;19;20023;-80
2023/01/07 05:48:15;;;;;;;1.52;0.90;;;;;;;10.91;100.00;99978.28;12157111;19;21496;-80
2023/01/07 05:52:16;;;;;;;2.10;1.00;;;;;;;10.91;100.00;99975.53;12178986;19;20376;-79
2023/01/07 05:56:18;;;;;;;2.15;1.00;;;;;;;10.91;100.00;99971.94;12177163;19;20010;-79
2023/01/07 06:00:19;;;;;;;1.85;1.17;;;;;;;10.94;99.95;99969.53;12156952;19;20011;-80
2023/01/07 06:04:21;;;;;;;1.30;0.90;;;;;;;10.90;99.41;99965.59;12176851;19;20476;-79
2023/01/07 06:08:23;;;;;;;1.60;0.85;;;;;;;10.90;98.82;99962.84;12179905;19;20014;-80
2023/01/07 06:12:25;;;;;;;1.52;1.00;;;;;;;10.89;99.14;99963.94;12151118;19;20011;-80
2023/01/07 06:16:26;;;;;;;1.55;0.90;;;;;;;10.89;99.18;99958.44;12172481;19;20010;-80
2023/01/07 06:20:33;;;;;;;1.50;1.00;;;;;;;10.94;99.53;99955.75;12175179;19;21685;-80
2023/01/07 06:24:34;;;;;;;2.53;1.17;;;;;;;10.94;99.32;99955.75;12152337;19;20271;-79
2023/01/07 06:28:36;;;;;;;3.15;1.20;;;;;;;10.89;98.83;99958.44;12175582;19;20787;-79
2023/01/07 06:32:39;;;;;;;3.72;1.40;;;;;;;10.94;99.29;99949.41;12170917;19;20374;-79
2023/01/07 06:36:41;;;;;;;2.63;1.15;;;;;;;10.95;99.42;99949.16;12149845;19;20006;-80
2023/01/07 06:40:43;;;;;;;2.10;1.08;;;;;;;10.97;99.87;99937.88;12168766;19;20038;-81
2023/01/07 06:44:45;;;;;;;3.70;1.30;;;;;;;10.95;99.22;99935.38;12171033;19;20666;-79
2023/01/07 06:48:47;;;;;;;1.87;1.17;;;;;;;10.95;99.35;99931.78;12150298;19;20024;-81
2023/01/07 06:52:49;;;;;;;2.83;1.55;;;;;;;10.95;99.22;99927.09;12171514;19;20255;-80
2023/01/07 06:56:50;;;;;;;3.25;1.50;;;;;;;10.95;99.47;99921.59;12152069;19;20018;-79
2023/01/07 07:00:53;;;;;;;4.20;1.50;;;;;;;10.93;98.90;99918.25;12168121;19;20011;-79
2023/01/07 07:04:56;;;;;;;7.60;2.75;;;;;;;10.95;99.35;99918.00;12171912;19;20006;-79
2023/01/07 07:08:58;;;;;;;7.25;3.42;;;;;;;10.94;99.12;99908.88;12015488;19;2735981;-79
2023/01/07 07:13:00;;;;;;;2.53;1.40;;;;;;;10.92;98.69;99911.06;12178952;19;20019;-79
2023/01/07 07:17:02;;;;;;;2.03;1.25;;;;;;;10.91;98.46;99909.38;12182470;19;20026;-79
2023/01/07 07:21:04;;;;;;;2.20;1.30;;;;;;;10.91;98.04;99906.63;12158664;19;20018;-79
2023/01/07 07:25:06;;;;;;;1.55;0.90;;;;;;;10.86;97.87;99906.56;12175254;19;20116;-78
2023/01/07 07:29:09;;;;;;;1.80;1.20;;;;;;;10.88;98.08;99898.84;12177530;19;20003;-79
2023/01/07 07:33:13;;;;;;;0.80;0.60;;;;;;;10.89;98.00;99899.72;12154451;19;20041;-80
2023/01/07 07:37:15;;;;;;;3.05;1.20;;;;;;;10.90;98.19;99893.09;12175633;19;20003;-79
2023/01/07 07:41:17;;;;;;;2.55;1.20;;;;;;;10.90;97.69;99891.16;12174022;19;20014;-79
2023/01/07 07:45:18;;;;;;;2.20;0.95;;;;;;;10.91;97.94;99895.59;12151616;19;20005;-79
2023/01/07 07:49:20;;;;;;;1.70;0.90;;;;;;;10.92;97.92;99893.69;12176292;19;20025;-80
2023/01/07 07:53:23;;;;;;;1.58;0.90;;;;;;;10.91;96.69;99887.31;12192338;19;20003;-80
2023/01/07 07:57:25;;;;;;;1.05;0.63;;;;;;;10.94;96.79;99883.22;12207829;19;20005;-80
2023/01/07 08:01:28;;;;;;;1.45;0.73;;;;;;;10.94;96.11;99888.75;12196744;19;20003;-80
2023/01/07 08:05:31;;;;;;;1.92;0.70;;;;;;;10.95;95.95;99885.75;12175353;19;21732;-81
2023/01/07 08:09:32;;;;;;;1.83;0.90;;;;;;;10.98;95.28;99889.09;12154606;19;20003;-80
2023/01/07 08:13:34;;;;;;;0.98;0.70;;;;;;;11.01;94.13;99878.41;12149358;19;20260;-79
2023/01/07 08:17:35;;;;;;;1.38;0.95;;;;;;;10.95;92.96;99862.88;12178998;19;20046;-79
2023/01/07 08:21:37;;;;;;;2.40;0.85;;;;;;;10.97;92.43;99859.84;12164366;19;20034;-79
2023/01/07 08:25:39;;;;;;;1.25;0.82;;;;;;;11.03;92.56;99861.59;12189085;19;20011;-80
2023/01/07 08:29:40;;;;;;;0.77;0.65;;;;;;;11.03;91.57;99853.31;12186307;19;20006;-80
2023/01/07 08:33:42;;;;;;;1.27;0.65;;;;;;;11.10;91.18;99843.78;12156067;19;21304;-79
2023/01/07 08:37:44;;;;;;;1.13;0.60;;;;;;;11.13;90.23;99847.97;12179556;19;20003;-80
2023/01/07 08:41:46;;;;;;;1.60;0.75;;;;;;;11.16;89.22;99844.72;12181675;19;20343;-79
2023/01/07 08:45:48;;;;;;;2.53;1.00;;;;;;;11.14;88.20;99849.63;12167807;19;20015;-79
2023/01/07 08:49:50;;;;;;;2.20;0.90;;;;;;;11.15;88.25;99841.13;12181675;19;20006;-79
2023/01/07 08:53:54;;;;;;;3.13;1.25;;;;;;;11.18;87.17;99848.03;12188440;19;20003;-80
2023/01/07 08:57:55;;;;;;;2.03;1.05;;;;;;;11.27;88.00;99835.47;12214453;19;20010;-77
2023/01/07 09:01:57;;;;;;;1.42;0.88;;;;;;;11.24;86.42;99833.22;12222654;19;20003;-79
2023/01/07 09:05:59;;;;;;;3.22;0.95;;;;;;;11.27;86.37;99827.19;12183312;19;20011;-81
2023/01/07 09:10:03;;;;;;;3.90;1.70;;;;;;;11.30;85.82;99809.31;12183847;19;20034;-81
2023/01/07 09:14:06;;;;;;;1.70;1.02;;;;;;;11.35;85.82;99810.22;12178457;19;20002;-80
2023/01/07 09:18:08;;;;;;;1.75;0.95;;;;;;;11.38;85.51;99809.72;12159210;19;20480;-81
2023/01/07 09:22:10;;;;;;;2.47;1.20;;;;;;;11.38;85.28;99795.91;12173823;19;20019;-81
2023/01/07 09:26:12;;;;;;;3.15;1.00;;;;;;;11.42;85.02;99801.75;12177008;19;20014;-81
2023/01/07 09:30:14;;;;;;;2.65;1.20;;;;;;;11.34;83.11;99804.97;12158908;19;20110;-80
2023/01/07 09:34:16;;;;;;;3.00;1.25;;;;;;;11.44;84.15;99793.22;12178065;19;20441;-81
2023/01/07 09:38:18;;;;;;;2.22;1.02;;;;;;;11.45;82.47;99789.38;12177891;19;20467;-80
2023/01/07 09:42:44;;;;;;;2.10;0.95;;;;;;;11.62;83.56;99785.44;12151955;19;20021;-81
2023/01/07 09:46:54;;;;;;;0.90;0.68;;;;;;;11.70;79.41;99781.41;12176385;19;20831;-80
2023/01/07 09:51:03;;;;;;;7.30;3.22;;;;;;;11.88;79.72;99783.03;12174020;19;20015;-80
2023/01/07 09:55:15;;;;;;;2.53;1.20;;;;;;;12.07;79.26;99787.09;12146106;19;20010;-79
2023/01/07 09:59:18;;;;;;;1.60;0.70;;;;;;;12.13;77.35;99789.91;12161274;19;20006;-79
2023/01/07 10:03:39;;;;;;;1.08;0.63;;;;;;;12.23;76.88;99782.56;12146599;19;20010;-79
2023/01/07 10:08:14;;;;;;;2.08;0.95;;;;;;;12.46;76.49;99769.50;12171098;19;20007;-79
2023/01/07 10:13:03;;;;;;;1.25;1.00;;;;;;;12.62;75.21;99774.06;12141658;19;20031;-78
2023/01/07 10:17:28;;;;;;;1.30;0.90;;;;;;;12.62;73.33;99754.72;12161527;19;20006;-79
2023/01/07 10:21:46;;;;;;;1.80;0.93;;;;;;;12.68;73.49;99753.66;12143124;19;20010;-80
2023/01/07 10:25:53;;;;;;;0.60;0.50;;;;;;;12.74;72.52;99754.53;12159820;19;19998;-79
2023/01/07 10:30:00;;;;;;;0.98;0.50;;;;;;;12.86;72.63;99743.28;12164523;19;20031;-79
2023/01/07 10:34:11;;;;;;;0.98;0.80;;;;;;;12.96;71.94;99751.63;12141318;19;20011;-78
2023/01/07 10:38:18;;;;;;;1.02;0.70;;;;;;;13.05;71.09;99741.72;12162968;19;20015;-79
2023/01/07 10:42:39;;;;;;;0.70;0.50;;;;;;;12.90;68.65;99731.41;12144082;19;20033;-79
2023/01/07 10:47:15;;;;;;;3.28;0.90;;;;;;;12.84;68.52;99726.13;12166627;19;20026;-78
2023/01/07 10:52:01;;;;;;;0.52;0.50;;;;;;;12.92;69.91;99720.09;12143632;19;20016;-79
2023/01/07 10:56:07;;;;;;;1.55;0.75;;;;;;;12.80;68.92;99706.47;12167165;19;20002;-79
2023/01/07 11:00:15;;;;;;;1.52;0.93;;;;;;;12.96;69.08;99702.66;12155696;19;20006;-78
2023/01/07 11:04:17;;;;;;;0.88;0.60;;;;;;;12.99;69.56;99693.00;12168128;19;20448;-79
2023/01/07 11:08:31;;;;;;;1.10;0.70;;;;;;;12.96;67.82;99690.78;12170712;19;20010;-79
2023/01/07 11:12:42;;;;;;;2.83;0.70;;;;;;;13.03;69.47;99663.72;12145014;19;21028;-79
2023/01/07 11:16:57;;;;;;;1.58;1.00;;;;;;;13.06;69.35;99652.13;12166594;19;20011;-79
2023/01/07 11:20:59;;;;;;;0.40;0.40;;;;;;;12.98;68.92;99649.88;12155283;19;20082;-78
2023/01/07 11:25:28;;;;;;;1.85;0.80;;;;;;;12.97;69.43;99662.03;12166898;19;20015;-79
2023/01/07 11:29:41;;;;;;;1.92;0.80;;;;;;;12.83;69.56;99644.25;12172975;19;20013;-79
2023/01/07 11:33:51;;;;;;;1.42;0.80;;;;;;;12.76;69.90;99641.75;12148299;19;20038;-78
2023/01/07 11:38:25;;;;;;;3.60;1.75;;;;;;;12.73;70.05;99634.81;12167700;19;20070;-79
2023/01/07 11:42:37;;;;;;;2.55;1.23;;;;;;;12.74;70.23;99621.81;12145645;19;20409;-79
2023/01/07 11:46:43;;;;;;;1.48;0.70;;;;;;;12.72;69.99;99616.53;12167078;19;20010;-79
2023/01/07 11:51:00;;;;;;;1.42;0.70;;;;;;;12.58;70.23;99597.94;12167720;19;20022;-79
2023/01/07 11:55:01;;;;;;;1.05;0.70;;;;;;;12.51;70.18;99603.72;12140202;19;20018;-79
2023/01/07 11:59:18;;;;;;;1.48;0.90;;;;;;;12.39;70.52;99600.34;12168716;19;20018;-79
2023/01/07 12:03:20;;;;;;;2.42;0.80;;;;;;;12.32;70.63;99584.81;12149905;19;20014;-79
2023/01/07 12:07:23;;;;;;;3.30;1.20;;;;;;;12.32;70.58;99582.06;12172823;19;20010;-79
2023/01/07 12:11:33;;;;;;;3.20;1.27;;;;;;;12.28;70.98;99567.13;12174077;19;20009;-79
2023/01/07 12:15:48;;;;;;;2.90;1.40;;;;;;;12.25;71.60;99558.53;12146408;19;20006;-78
2023/01/07 12:20:39;;;;;;;4.45;2.03;;;;;;;12.20;71.09;99553.81;12161954;19;20103;-80
2023/01/07 12:24:57;;;;;;;2.78;1.52;;;;;;;12.19;71.47;99562.34;12131248;19;20587;-79
2023/01/07 12:29:26;;;;;;;1.38;1.08;;;;;;;12.17;71.74;99551.59;12160827;19;20014;-78
2023/01/07 12:33:39;;;;;;;2.78;1.30;;;;;;;12.04;70.82;99549.28;12143630;19;20011;-79
2023/01/07 12:38:10;;;;;;;2.40;1.30;;;;;;;12.08;71.57;99550.44;12165607;19;20154;-79
2023/01/07 12:42:29;;;;;;;3.58;1.50;;;;;;;12.07;71.52;99537.69;12140472;19;20070;-79
2023/01/07 12:46:43;;;;;;;0.93;0.70;;;;;;;11.95;70.29;99523.25;12164874;19;20017;-80
2023/01/07 12:50:48;;;;;;;2.05;1.00;;;;;;;12.07;71.28;99515.59;12159987;19;20009;-77
2023/01/07 12:55:07;;;;;;;1.90;0.90;;;;;;;12.04;70.30;99510.63;12148470;19;20033;-77
2023/01/07 12:59:29;;;;;;;2.70;1.23;;;;;;;12.16;70.53;99500.19;12166896;19;20011;-77
2023/01/07 13:04:14;;;;;;;2.95;1.35;;;;;;;12.17;69.83;99490.81;12140997;19;20011;-79
2023/01/07 13:08:41;;;;;;;2.58;1.42;;;;;;;12.15;69.54;99484.72;12199816;19;20013;-76
2023/01/07 13:12:46;;;;;;;3.65;1.55;;;;;;;12.17;70.03;99479.78;12201801;19;20279;-78
2023/01/07 13:16:48;;;;;;;4.55;1.70;;;;;;;12.25;69.65;99490.28;12184397;19;20018;-79
2023/01/07 13:21:10;;;;;;;3.45;1.17;;;;;;;12.25;69.16;99483.94;12199210;19;20014;-77
2023/01/07 13:25:50;;;;;;;1.92;0.90;;;;;;;12.31;69.41;99480.94;12169738;19;20007;-78
2023/01/07 13:29:57;;;;;;;2.75;1.30;;;;;;;12.36;69.46;99480.13;12192739;19;20039;-77
2023/01/07 13:34:01;;;;;;;2.03;0.90;;;;;;;12.35;69.71;99475.72;12170090;19;20652;-78
2023/01/07 13:38:29;;;;;;;1.42;0.80;;;;;;;12.45;70.51;99463.84;12205603;19;20007;-78
2023/01/07 13:42:38;;;;;;;1.50;0.73;;;;;;;12.32;68.54;99456.91;12183359;19;20090;-79
2023/01/07 13:46:44;;;;;;;1.60;0.93;;;;;;;12.39;69.26;99456.66;12206547;19;20103;-78
2023/01/07 13:50:58;;;;;;;2.13;1.02;;;;;;;12.27;69.15;99452.19;12208125;19;20013;-78
2023/01/07 13:55:36;;;;;;;2.45;1.20;;;;;;;12.29;69.54;99457.44;12182531;19;20039;-78
2023/01/07 13:59:47;;;;;;;3.92;1.73;;;;;;;12.28;69.37;99462.16;12206549;19;20002;-78
2023/01/07 14:03:53;;;;;;;1.88;0.95;;;;;;;12.26;69.88;99464.34;12179263;19;21380;-77
2023/01/07 14:07:59;;;;;;;1.58;0.93;;;;;;;12.17;70.07;99457.69;12203238;19;20003;-78
2023/01/07 14:13:00;;;;;;;2.25;1.00;;;;;;;12.18;70.18;99455.75;12203489;19;20014;-78
2023/01/07 14:17:39;;;;;;;2.38;0.90;;;;;;;12.17;70.07;99451.31;12094781;19;2004383;-77
2023/01/07 14:22:03;;;;;;;1.33;0.80;;;;;;;12.16;70.68;99433.91;12182240;19;21353;-77
2023/01/07 14:26:24;;;;;;;2.10;0.98;;;;;;;12.22;70.82;99440.28;12198131;19;20011;-77
2023/01/07 14:31:02;;;;;;;3.22;1.27;;;;;;;12.23;70.86;99453.84;12178169;19;20030;-77
2023/01/07 14:35:22;;;;;;;1.80;0.90;;;;;;;12.24;70.74;99444.44;12199804;19;20010;-78
2023/01/07 14:39:43;;;;;;;2.17;0.98;;;;;;;12.24;71.19;99438.91;12182184;19;20010;-77
2023/01/07 14:43:47;;;;;;;2.05;0.90;;;;;;;12.24;71.64;99443.59;12201314;19;20013;-76
2023/01/07 14:47:49;;;;;;;1.98;0.80;;;;;;;12.23;71.50;99434.50;12202184;19;20523;-76
2023/01/07 14:51:55;;;;;;;3.03;1.15;;;;;;;12.17;71.38;99421.75;12186096;19;20055;-78
2023/01/07 14:56:15;;;;;;;2.47;0.88;;;;;;;12.07;71.83;99410.66;12206031;19;20011;-78
2023/01/07 15:00:41;;;;;;;1.83;1.13;;;;;;;11.96;72.27;99409.81;12187421;19;20033;-78
2023/01/07 15:05:25;;;;;;;3.13;1.05;;;;;;;11.81;73.12;99401.41;12213408;19;20039;-76
2023/01/07 15:18:48;;;;;;;1.80;1.20;;;;;;;11.40;75.57;99390.94;12159714;19;20046;-77
2023/01/07 15:23:05;;;;;;;2.45;1.30;;;;;;;11.27;76.14;99399.66;12202863;19;20472;-78
2023/01/07 15:27:28;;;;;;;2.13;1.10;;;;;;;11.13;77.03;99399.31;12200940;19;20006;-77
2023/01/07 15:31:47;;;;;;;2.25;1.20;;;;;;;10.99;77.80;99397.25;12174583;19;20014;-77
2023/01/07 15:35:49;;;;;;;2.55;1.20;;;;;;;10.83;78.49;99396.28;12202505;19;20018;-78
2023/01/07 15:39:55;;;;;;;2.63;1.20;;;;;;;10.66;79.40;99397.22;12179084;19;19998;-78
2023/01/07 15:43:59;;;;;;;3.20;1.25;;;;;;;10.50;80.52;99398.19;12199219;19;20098;-78
2023/01/07 15:48:19;;;;;;;3.88;1.63;;;;;;;10.33;81.52;99397.44;12198126;19;20025;-79
2023/01/07 15:52:25;;;;;;;2.15;1.40;;;;;;;10.15;82.27;99395.81;12183831;19;20030;-78
2023/01/07 15:56:28;;;;;;;3.50;1.35;;;;;;;10.02;82.92;99397.88;12202803;19;20010;-77
2023/01/07 16:00:31;;;;;;;2.78;1.52;;;;;;;9.92;83.45;99397.72;12175834;19;20014;-78
2023/01/07 16:04:37;;;;;;;1.65;1.23;;;;;;;9.78;84.34;99388.19;12198133;19;20428;-78
2023/01/07 16:08:42;;;;;;;4.00;1.55;;;;;;;9.62;84.99;99386.31;12195578;19;20003;-78
2023/01/07 16:12:49;;;;;;;2.25;1.10;;;;;;;9.50;85.74;99383.69;12178454;19;20384;-78
2023/01/07 16:17:09;;;;;;;3.40;1.50;;;;;;;9.38;86.54;99380.22;12199031;19;20007;-78
2023/01/07 16:21:13;;;;;;;2.47;1.35;;;;;;;9.29;86.71;99375.13;12204093;19;20006;-77
2023/01/07 16:25:31;;;;;;;3.28;1.70;;;;;;;9.25;87.31;99370.38;12186755;19;20003;-79
2023/01/07 16:29:48;;;;;;;2.38;1.20;;;;;;;9.17;87.94;99371.66;12195833;19;20019;-79
2023/01/07 16:33:54;;;;;;;5.50;1.27;;;;;;;9.08;88.39;99363.00;12181519;19;20049;-79
2023/01/07 16:37:56;;;;;;;2.55;1.40;;;;;;;8.99;89.21;99361.75;12198368;19;20067;-80
2023/01/07 16:46:24;;;;;;;2.95;1.50;;;;;;;8.84;90.08;99353.25;12177434;19;20054;-80
2023/01/07 16:50:34;;;;;;;4.65;1.35;;;;;;;8.81;90.76;99353.75;12198013;19;20006;-79
2023/01/07 16:54:43;;;;;;;4.97;1.67;;;;;;;8.81;91.19;99353.75;12181683;19;20064;-80
2023/01/07 16:58:54;;;;;;;2.90;1.55;;;;;;;8.81;91.65;99343.59;12203163;19;20018;-80
2023/01/07 17:02:58;;;;;;;3.22;1.60;;;;;;;8.82;91.86;99339.75;12200526;19;20016;-79
2023/01/07 17:07:01;;;;;;;3.13;1.70;;;;;;;8.86;92.23;99329.09;12178542;19;20492;-79
2023/01/07 17:11:18;;;;;;;2.83;1.93;;;;;;;8.94;92.37;99320.44;12205399;19;20038;-80
2023/01/07 17:15:30;;;;;;;4.72;1.77;;;;;;;9.02;92.23;99324.69;12184223;19;20032;-79
2023/01/07 17:19:39;;;;;;;4.80;2.13;;;;;;;9.05;92.75;99325.03;12209102;19;20007;-79
2023/01/07 17:23:42;;;;;;;6.70;2.35;;;;;;;9.12;92.62;99314.66;12209576;19;20019;-80
2023/01/07 17:27:49;;;;;;;5.67;2.33;;;;;;;9.21;94.28;99311.50;12188772;19;20011;-80
2023/01/07 17:31:51;;;;;;;4.57;2.05;;;;;;;9.35;92.69;99297.13;12202506;19;20033;-80
2023/01/07 17:35:56;;;;;;;4.45;2.03;;;;;;;9.41;92.51;99300.78;12207817;19;20019;-78
2023/01/07 17:39:58;;;;;;;5.28;2.22;;;;;;;9.45;93.27;99279.09;12182470;19;20038;-79
2023/01/07 17:44:04;;;;;;;4.47;1.98;;;;;;;9.53;92.61;99290.47;12203321;19;20014;-79
2023/01/07 17:48:13;;;;;;;4.97;2.47;;;;;;;9.59;92.48;99288.63;12209019;19;20025;-79
2023/01/07 17:52:14;;;;;;;3.92;2.13;;;;;;;9.67;92.32;99298.38;12183098;19;20329;-79
2023/01/07 17:56:16;;;;;;;4.72;2.05;;;;;;;9.70;91.93;99284.09;12203505;19;20110;-79
2023/01/07 18:00:21;;;;;;;3.15;2.10;;;;;;;9.81;91.44;99291.34;12189790;19;20124;-78
2023/01/07 18:04:23;;;;;;;4.45;2.17;;;;;;;9.81;91.12;99288.59;12213230;19;20341;-77
2023/01/07 18:08:26;;;;;;;6.72;2.20;;;;;;;9.82;91.17;99282.84;12206773;19;20721;-77
2023/01/07 18:12:30;;;;;;;4.78;2.00;;;;;;;9.80;90.96;99286.97;12186222;19;20018;-78
2023/01/07 18:16:33;;;;;;;4.75;2.20;;;;;;;9.79;90.94;99285.31;12206103;19;20043;-78
2023/01/07 18:20:34;;;;;;;5.22;2.25;;;;;;;9.71;90.97;99285.75;12261377;19;20034;-76
2023/01/07 18:24:36;;;;;;;5.03;2.25;;;;;;;9.67;91.26;99290.94;12224551;19;20011;-78
2023/01/07 18:28:39;;;;;;;5.80;2.75;;;;;;;9.65;91.17;99278.53;12202085;19;20519;-76
2023/01/07 18:32:42;;;;;;;4.82;2.38;;;;;;;9.65;91.22;99284.03;12198283;19;20875;-79
2023/01/07 18:36:45;;;;;;;5.57;2.40;;;;;;;9.64;91.08;99274.09;12182234;19;20086;-77
2023/01/07 18:40:47;;;;;;;6.37;2.40;;;;;;;9.57;91.37;99269.63;12208773;19;20344;-76
2023/01/07 18:44:49;;;;;;;5.25;2.55;;;;;;;9.59;91.38;99278.44;12239461;19;20017;-77
2023/01/07 18:48:51;;;;;;;7.13;3.70;;;;;;;9.67;91.19;99259.84;12180013;19;19999;-78
2023/01/07 18:52:52;;;;;;;6.82;3.10;;;;;;;9.74;90.92;99257.72;12200894;19;20743;-77
2023/01/07 18:56:54;;;;;;;3.78;2.75;;;;;;;9.72;90.96;99259.88;12198062;19;20002;-78
2023/01/07 19:01:01;;;;;;;5.47;2.22;;;;;;;9.70;91.06;99251.09;12175660;19;20400;-77
2023/01/07 19:05:05;;;;;;;4.85;2.40;;;;;;;9.72;91.21;99244.22;12197629;19;20035;-78
2023/01/07 19:09:06;;;;;;;4.50;2.40;;;;;;;9.80;90.62;99246.50;12198440;19;20015;-78
2023/01/07 19:13:08;;;;;;;4.53;2.65;;;;;;;9.87;90.39;99238.03;12175570;19;20022;-77
2023/01/07 19:17:10;;;;;;;5.00;2.75;;;;;;;9.93;89.91;99244.44;12204885;19;20014;-77
2023/01/07 19:21:13;;;;;;;;;;;;;;;9.94;89.71;99235.09;12194690;19;20042;-78
2023/01/07 19:25:14;;;;;;;4.72;2.85;;;;;;;9.95;89.46;99232.06;12179960;19;19906;-76
2023/01/07 19:29:18;;;;;;;5.55;2.78;;;;;;;10.02;89.17;99232.72;12199670;19;20034;-77